X  Close Metar Aviation Weather Data     ESNL Lycksele
Temperature
-25°C Temperature
-27°C Dewpoint
83% Humidity



Wind
1 M/S
2 MPH
3 KM/H
2 KTS



290°
WNW
Current Conditions

Clear Clear
Pressure 998.92 (hPa) - 29.5 (inHg)
Visibility 6.2 (mile) - 10 (km)
Airport
Airport-code ESNL

Location: Lycksele
Distance: 35 (km)

Metar:
ESNL 262220Z AUTO 29002KT 9999 NCD M25/M27 Q0999

Time: 2020-02-26 23:20 CET